createdAt,value
2023-08-07T00:00:49.423Z,100.00
2023-08-07T00:03:19.982Z,100.00
2023-08-07T00:05:48.589Z,100.00
2023-08-07T00:08:17.138Z,100.00
2023-08-07T00:10:45.551Z,100.00
2023-08-07T00:13:15.356Z,100.00
2023-08-07T00:15:43.784Z,100.00
2023-08-07T00:18:12.242Z,100.00
2023-08-07T00:20:40.530Z,100.00
2023-08-07T00:23:08.873Z,100.00
2023-08-07T00:25:37.339Z,100.00
2023-08-07T00:28:05.915Z,100.00
2023-08-07T00:30:35.780Z,100.00
2023-08-07T00:33:04.519Z,100.00
2023-08-07T00:35:32.924Z,100.00
2023-08-07T00:38:01.340Z,100.00
2023-08-07T00:40:29.789Z,100.00
2023-08-07T00:42:58.327Z,100.00
2023-08-07T00:45:26.732Z,100.00
2023-08-07T00:47:56.726Z,100.00
2023-08-07T00:50:28.485Z,100.00
2023-08-07T00:53:03.380Z,100.00
2023-08-07T00:55:32.140Z,100.00
2023-08-07T00:58:00.859Z,100.00
2023-08-07T01:00:31.488Z,100.00
2023-08-07T01:03:02.927Z,100.00
2023-08-07T01:05:31.876Z,100.00
2023-08-07T01:08:00.387Z,100.00
2023-08-07T01:10:43.176Z,100.00
2023-08-07T01:13:18.702Z,100.00
2023-08-07T01:15:49.489Z,100.00
2023-08-07T01:18:20.177Z,100.00
2023-08-07T01:20:48.482Z,100.00
2023-08-07T01:23:18.302Z,100.00
2023-08-07T01:25:47.377Z,100.00
2023-08-07T01:28:25.432Z,100.00
2023-08-07T01:30:57.620Z,100.00
2023-08-07T01:33:33.601Z,100.00
2023-08-07T01:36:06.444Z,100.00
2023-08-07T01:38:37.458Z,100.00
2023-08-07T01:41:06.453Z,100.00
2023-08-07T01:43:35.140Z,100.00
2023-08-07T01:46:04.231Z,100.00
2023-08-07T01:48:32.719Z,100.00
2023-08-07T01:51:01.190Z,100.00
2023-08-07T01:53:29.586Z,100.00
2023-08-07T01:55:59.377Z,100.00
2023-08-07T01:58:27.967Z,100.00
2023-08-07T02:00:56.708Z,100.00
2023-08-07T02:03:25.181Z,100.00
2023-08-07T02:05:53.634Z,100.00
2023-08-07T02:08:22.152Z,100.00
2023-08-07T02:10:50.575Z,100.00
2023-08-07T02:13:20.394Z,100.00
2023-08-07T02:15:48.900Z,100.00
2023-08-07T02:18:17.262Z,100.00
2023-08-07T02:20:47.463Z,100.00
2023-08-07T02:23:15.935Z,100.00
2023-08-07T02:25:46.597Z,100.00
2023-08-07T02:28:15.077Z,100.00
2023-08-07T02:30:49.851Z,100.00
2023-08-07T02:33:18.361Z,100.00
2023-08-07T02:35:46.840Z,100.00
2023-08-07T02:38:15.359Z,100.00
2023-08-07T02:40:43.910Z,100.00
2023-08-07T02:43:12.326Z,100.00
2023-08-07T02:45:40.755Z,100.00
2023-08-07T02:48:10.728Z,100.00
2023-08-07T02:50:39.183Z,100.00
2023-08-07T02:53:07.558Z,100.00
2023-08-07T02:55:35.923Z,100.00
2023-08-07T02:58:04.365Z,100.00
2023-08-07T03:00:32.776Z,100.00
2023-08-07T03:03:01.283Z,100.00
2023-08-07T03:05:32.012Z,100.00
2023-08-07T03:08:00.440Z,100.00
2023-08-07T03:10:29.192Z,100.00
2023-08-07T03:12:57.545Z,100.00
2023-08-07T03:15:25.903Z,100.00
2023-08-07T03:17:54.465Z,100.00
2023-08-07T03:20:22.927Z,100.00
2023-08-07T03:22:52.712Z,100.00
2023-08-07T03:25:21.132Z,100.00
2023-08-07T03:27:49.578Z,100.00
2023-08-07T03:30:17.933Z,100.00
2023-08-07T03:32:46.297Z,100.00
2023-08-07T03:35:14.727Z,100.00
2023-08-07T03:37:43.430Z,100.00
2023-08-07T03:40:13.973Z,100.00
2023-08-07T03:42:42.381Z,100.00
2023-08-07T03:45:11.666Z,99.78
2023-08-07T03:47:40.110Z,95.29
2023-08-07T03:50:09.482Z,97.08
2023-08-07T03:52:37.892Z,91.54
2023-08-07T03:55:07.007Z,88.41
2023-08-07T03:57:36.871Z,88.28
2023-08-07T04:00:05.836Z,87.71
2023-08-07T04:02:34.265Z,85.66
2023-08-07T04:05:02.565Z,83.28
2023-08-07T04:07:30.924Z,81.25
2023-08-07T04:09:59.411Z,80.36
2023-08-07T04:12:27.792Z,77.63
2023-08-07T04:14:57.629Z,78.79
2023-08-07T04:17:25.947Z,79.04
2023-08-07T04:19:54.324Z,82.89
2023-08-07T04:22:22.854Z,90.02
2023-08-07T04:24:51.180Z,93.95
2023-08-07T04:27:19.573Z,98.52
2023-08-07T04:29:48.129Z,98.39
2023-08-07T04:32:17.840Z,100.00
2023-08-07T04:34:46.499Z,100.00
2023-08-07T04:37:14.881Z,100.00
2023-08-07T04:39:43.787Z,95.81
2023-08-07T04:42:12.114Z,91.96
2023-08-07T04:44:40.474Z,86.25
2023-08-07T04:47:08.860Z,83.56
2023-08-07T04:49:38.589Z,77.28
2023-08-07T04:52:20.601Z,73.04
2023-08-07T04:54:53.044Z,69.99
2023-08-07T04:57:21.400Z,63.72
2023-08-07T04:59:51.900Z,60.37
2023-08-07T05:02:20.549Z,56.02
2023-08-07T05:04:50.448Z,56.69
2023-08-07T05:07:19.135Z,50.54
2023-08-07T05:09:47.604Z,49.22
2023-08-07T05:12:16.018Z,46.83
2023-08-07T05:14:44.418Z,48.42
2023-08-07T05:17:14.238Z,48.98
2023-08-07T05:19:43.106Z,45.33
2023-08-07T05:22:12.973Z,44.58
2023-08-07T05:24:41.365Z,44.34
2023-08-07T05:27:11.263Z,43.15
2023-08-07T05:29:45.129Z,43.03
2023-08-07T05:32:14.012Z,42.37
2023-08-07T05:34:42.388Z,43.67
2023-08-07T05:37:12.285Z,40.63
2023-08-07T05:39:40.767Z,42.11
2023-08-07T05:42:11.325Z,42.06
2023-08-07T05:44:39.647Z,39.40
2023-08-07T05:47:09.638Z,39.52
2023-08-07T05:49:38.167Z,38.75
2023-08-07T05:52:07.379Z,38.38
2023-08-07T05:54:37.258Z,37.83
2023-08-07T05:57:06.328Z,38.63
2023-08-07T05:59:35.956Z,38.29
2023-08-07T06:02:05.521Z,39.61
2023-08-07T06:04:34.186Z,39.00
2023-08-07T06:07:03.118Z,38.81
2023-08-07T06:09:31.576Z,37.72
2023-08-07T06:12:01.538Z,37.67
2023-08-07T06:14:30.397Z,39.85
2023-08-07T06:17:00.500Z,39.32
2023-08-07T06:19:32.635Z,38.78
2023-08-07T06:22:02.079Z,37.38
2023-08-07T06:24:30.871Z,38.11
2023-08-07T06:27:00.805Z,37.70
2023-08-07T06:29:29.158Z,38.06
2023-08-07T06:31:57.835Z,37.18
2023-08-07T06:34:26.496Z,37.80
2023-08-07T06:36:55.027Z,37.58
2023-08-07T06:39:23.368Z,37.44
2023-08-07T06:41:51.755Z,36.54
2023-08-07T06:44:21.591Z,37.00
2023-08-07T06:46:50.068Z,36.31
2023-08-07T06:49:18.619Z,36.23
2023-08-07T06:51:47.319Z,36.63
2023-08-07T06:54:15.664Z,38.09
2023-08-07T06:56:45.166Z,39.56
2023-08-07T06:59:13.529Z,38.57
2023-08-07T07:01:43.312Z,37.74
2023-08-07T07:04:11.682Z,38.40
2023-08-07T07:06:40.398Z,37.31
2023-08-07T07:09:08.881Z,39.07
2023-08-07T07:11:37.303Z,37.77
2023-08-07T07:14:05.752Z,36.83
2023-08-07T07:16:34.267Z,37.43
2023-08-07T07:19:04.263Z,37.72
2023-08-07T07:21:32.595Z,37.95
2023-08-07T07:24:00.900Z,38.31
2023-08-07T07:26:29.297Z,36.40
2023-08-07T07:28:57.800Z,35.79
2023-08-07T07:31:26.222Z,37.47
2023-08-07T07:33:54.621Z,37.30
2023-08-07T07:36:24.543Z,36.68
2023-08-07T07:38:52.964Z,36.19
2023-08-07T07:41:21.362Z,35.14
2023-08-07T07:43:49.895Z,37.83
2023-08-07T07:46:18.317Z,37.05
2023-08-07T07:48:46.664Z,39.56
2023-08-07T07:51:15.019Z,38.03
2023-08-07T07:53:44.885Z,39.65
2023-08-07T07:56:13.482Z,40.25
2023-08-07T07:58:42.723Z,40.90
2023-08-07T08:01:11.433Z,42.09
2023-08-07T08:03:39.763Z,43.16
2023-08-07T08:06:08.255Z,44.03
2023-08-07T08:08:36.830Z,44.73
2023-08-07T08:11:06.701Z,46.29
2023-08-07T08:13:36.892Z,45.28
2023-08-07T08:16:06.066Z,44.83
2023-08-07T08:18:34.444Z,44.68
2023-08-07T08:21:03.256Z,44.34
2023-08-07T08:23:31.778Z,44.92
2023-08-07T08:26:00.218Z,44.82
2023-08-07T08:28:30.040Z,45.64
2023-08-07T08:30:58.536Z,44.99
2023-08-07T08:33:26.854Z,45.58
2023-08-07T08:35:55.259Z,45.15
2023-08-07T08:38:24.543Z,44.83
2023-08-07T08:40:54.620Z,45.04
2023-08-07T08:43:24.065Z,45.67
2023-08-07T08:45:54.205Z,44.12
2023-08-07T08:48:24.910Z,45.28
2023-08-07T08:50:54.601Z,44.54
2023-08-07T08:53:24.308Z,45.83
2023-08-07T08:55:53.713Z,45.24
2023-08-07T08:58:23.574Z,44.60
2023-08-07T09:00:54.045Z,44.96
2023-08-07T09:03:23.591Z,44.10
2023-08-07T09:05:55.461Z,44.04
2023-08-07T09:08:26.622Z,42.84
2023-08-07T09:10:55.476Z,43.22
2023-08-07T09:13:26.822Z,42.83
2023-08-07T09:15:57.878Z,42.43
2023-08-07T09:18:26.388Z,43.41
2023-08-07T09:20:55.132Z,42.85
2023-08-07T09:23:24.173Z,41.73
2023-08-07T09:26:01.689Z,41.62
2023-08-07T09:28:32.071Z,40.76
2023-08-07T09:31:03.266Z,39.95
2023-08-07T09:33:32.761Z,42.37
2023-08-07T09:36:01.717Z,42.70
2023-08-07T09:38:32.793Z,43.07
2023-08-07T09:41:01.544Z,42.84
2023-08-07T09:43:30.979Z,41.49
2023-08-07T09:46:06.827Z,43.00
2023-08-07T09:48:42.457Z,41.43
2023-08-07T09:51:11.298Z,40.08
2023-08-07T09:53:40.190Z,39.40
2023-08-07T09:56:09.033Z,40.07
2023-08-07T09:58:37.625Z,40.43
2023-08-07T10:01:08.645Z,39.35
2023-08-07T10:03:38.165Z,39.43
2023-08-07T10:06:07.586Z,39.11
2023-08-07T10:08:37.771Z,38.00
2023-08-07T10:11:07.222Z,38.69
2023-08-07T10:13:39.655Z,38.38
2023-08-07T10:16:10.133Z,38.16
2023-08-07T10:18:39.014Z,38.06
2023-08-07T10:21:09.071Z,37.95
2023-08-07T10:23:38.605Z,37.60
2023-08-07T10:26:08.530Z,38.11
2023-08-07T10:28:40.390Z,38.07
2023-08-07T10:31:11.799Z,38.28
2023-08-07T10:33:40.786Z,38.19
2023-08-07T10:36:13.677Z,38.40
2023-08-07T10:38:43.330Z,38.45
2023-08-07T10:41:14.653Z,37.46
2023-08-07T10:43:44.474Z,37.74
2023-08-07T10:46:19.684Z,37.26
2023-08-07T10:48:55.941Z,37.66
2023-08-07T10:51:31.910Z,38.08
2023-08-07T10:54:02.072Z,39.49
2023-08-07T10:56:33.415Z,38.49
2023-08-07T10:59:10.915Z,37.03
2023-08-07T11:01:45.038Z,36.23
2023-08-07T11:04:15.114Z,35.95
2023-08-07T11:06:45.847Z,35.94
2023-08-07T11:09:14.472Z,36.62
2023-08-07T11:11:46.197Z,35.84
2023-08-07T11:14:16.935Z,35.75
2023-08-07T11:16:48.061Z,35.82
2023-08-07T11:19:17.671Z,36.48
2023-08-07T11:21:46.610Z,36.38
2023-08-07T11:24:16.875Z,37.20
2023-08-07T11:26:46.230Z,34.92
2023-08-07T11:29:19.080Z,34.00
2023-08-07T11:31:49.298Z,34.62
2023-08-07T11:34:19.850Z,35.08
2023-08-07T11:36:49.403Z,35.28
2023-08-07T11:39:18.303Z,35.30
2023-08-07T11:41:47.028Z,35.89
2023-08-07T11:44:15.600Z,34.99
2023-08-07T11:46:43.985Z,36.67
2023-08-07T11:49:14.714Z,34.89
2023-08-07T11:51:43.197Z,35.97
2023-08-07T11:54:17.906Z,35.90
2023-08-07T11:56:48.027Z,34.48
2023-08-07T11:59:18.984Z,33.79
2023-08-07T12:01:48.646Z,34.57
2023-08-07T12:04:20.786Z,34.49
2023-08-07T12:06:57.326Z,35.70
2023-08-07T12:09:28.056Z,35.30
2023-08-07T12:11:59.277Z,35.38
2023-08-07T12:14:31.540Z,34.89
2023-08-07T12:16:59.869Z,34.36
2023-08-07T12:19:38.587Z,34.54
2023-08-07T12:22:09.214Z,33.92
2023-08-07T12:24:39.141Z,33.69
2023-08-07T12:27:08.220Z,33.25
2023-08-07T12:29:36.736Z,33.09
2023-08-07T12:32:05.310Z,33.46
2023-08-07T12:34:35.829Z,33.90
2023-08-07T12:37:04.895Z,32.70
2023-08-07T12:44:37.642Z,31.12
2023-08-07T12:47:06.241Z,31.81
2023-08-07T12:49:36.014Z,32.43
2023-08-07T12:52:04.980Z,31.42
2023-08-07T12:54:33.382Z,31.10
2023-08-07T12:57:01.729Z,31.52
2023-08-07T12:59:30.179Z,31.43
2023-08-07T13:01:58.635Z,30.83
2023-08-07T13:04:27.092Z,31.66
2023-08-07T13:06:56.991Z,32.28
2023-08-07T13:09:25.876Z,32.07
2023-08-07T13:11:54.108Z,32.29
2023-08-07T13:14:22.348Z,31.98
2023-08-07T13:16:52.385Z,31.77
2023-08-07T13:19:20.758Z,31.63
2023-08-07T13:21:49.639Z,31.71
2023-08-07T13:24:19.452Z,31.39
2023-08-07T13:26:48.162Z,31.49
2023-08-07T13:29:17.152Z,30.98
2023-08-07T13:31:47.406Z,31.89
2023-08-07T13:34:15.709Z,31.67
2023-08-07T13:36:44.132Z,31.49
2023-08-07T13:39:12.449Z,31.32
2023-08-07T13:41:42.159Z,31.14
2023-08-07T13:44:11.360Z,30.80
2023-08-07T13:46:39.700Z,31.05
2023-08-07T13:49:08.062Z,31.26
2023-08-07T13:51:36.358Z,30.93
2023-08-07T13:54:04.622Z,30.97
2023-08-07T13:56:32.941Z,31.21
2023-08-07T13:59:02.622Z,31.81
2023-08-07T14:01:31.007Z,30.81
2023-08-07T14:04:00.663Z,31.15
2023-08-07T14:06:28.953Z,30.35
2023-08-07T14:08:57.304Z,29.41
2023-08-07T14:11:31.405Z,29.70
2023-08-07T14:13:59.876Z,30.39
2023-08-07T14:16:29.532Z,30.58
2023-08-07T14:18:57.874Z,30.62
2023-08-07T14:21:26.405Z,31.28
2023-08-07T14:23:54.771Z,31.47
2023-08-07T14:26:23.510Z,32.11
2023-08-07T14:28:52.145Z,33.50
2023-08-07T14:31:20.468Z,33.18
2023-08-07T14:33:50.705Z,32.17
2023-08-07T14:36:19.580Z,31.26
2023-08-07T14:38:47.803Z,31.40
2023-08-07T14:41:16.259Z,31.12
2023-08-07T14:43:44.522Z,31.18
2023-08-07T14:46:13.053Z,31.80
2023-08-07T14:48:41.412Z,31.76
2023-08-07T14:51:11.201Z,32.03
2023-08-07T14:53:39.496Z,31.87
2023-08-07T14:56:09.720Z,32.17
2023-08-07T14:58:38.283Z,31.33
2023-08-07T15:01:06.633Z,31.53
2023-08-07T15:03:34.978Z,31.76
2023-08-07T15:06:03.279Z,31.66
2023-08-07T15:08:33.174Z,31.25
2023-08-07T15:11:01.573Z,31.09
2023-08-07T15:13:30.481Z,31.23
2023-08-07T15:15:58.997Z,31.57
2023-08-07T15:18:27.334Z,31.96
2023-08-07T15:20:55.644Z,32.25
2023-08-07T15:23:24.112Z,31.88
2023-08-07T15:25:54.967Z,32.55
2023-08-07T15:28:23.317Z,33.05
2023-08-07T15:30:52.555Z,32.94
2023-08-07T15:33:23.649Z,33.46
2023-08-07T15:35:56.179Z,33.65
2023-08-07T15:38:25.894Z,33.50
2023-08-07T15:40:55.588Z,32.39
2023-08-07T15:43:24.078Z,32.47
2023-08-07T15:45:53.790Z,32.53
2023-08-07T15:48:22.550Z,32.88
2023-08-07T15:50:51.440Z,33.14
2023-08-07T15:53:19.764Z,33.23
2023-08-07T15:55:48.170Z,33.96
2023-08-07T15:58:19.354Z,33.36
2023-08-07T16:00:47.691Z,33.05
2023-08-07T16:03:16.010Z,33.37
2023-08-07T16:05:44.286Z,32.14
2023-08-07T16:08:12.957Z,32.24
2023-08-07T16:10:41.327Z,32.16
2023-08-07T16:13:09.776Z,32.55
2023-08-07T16:15:39.664Z,32.79
2023-08-07T16:18:08.109Z,33.36
2023-08-07T16:20:36.424Z,49.15
2023-08-07T16:23:04.838Z,67.99
2023-08-07T16:25:33.225Z,81.62
2023-08-07T16:28:02.880Z,84.69
2023-08-07T16:30:31.215Z,85.00
2023-08-07T16:33:01.033Z,82.84
2023-08-07T16:35:29.840Z,88.71
2023-08-07T16:37:58.246Z,94.39
2023-08-07T16:40:26.550Z,89.18
2023-08-07T16:42:54.934Z,87.08
2023-08-07T16:45:24.800Z,93.47
2023-08-07T16:47:53.347Z,96.86
2023-08-07T16:50:24.953Z,100.00
2023-08-07T16:52:53.307Z,100.00
2023-08-07T16:55:21.872Z,100.00
2023-08-07T16:57:50.233Z,100.00
2023-08-07T17:00:19.517Z,100.00
2023-08-07T17:02:49.549Z,100.00
2023-08-07T17:05:17.995Z,100.00
2023-08-07T17:07:47.755Z,100.00
2023-08-07T17:10:17.576Z,100.00
2023-08-07T17:12:45.989Z,100.00
2023-08-07T17:15:14.359Z,100.00
2023-08-07T17:17:42.769Z,100.00
2023-08-07T17:20:12.253Z,100.00
2023-08-07T17:22:41.017Z,100.00
2023-08-07T17:25:11.568Z,100.00
2023-08-07T17:27:39.935Z,100.00
2023-08-07T17:30:09.596Z,100.00
2023-08-07T17:32:38.321Z,100.00
2023-08-07T17:35:07.972Z,100.00
2023-08-07T17:37:36.271Z,100.00
2023-08-07T17:40:06.233Z,100.00
2023-08-07T17:42:36.028Z,100.00
2023-08-07T17:45:04.960Z,100.00
2023-08-07T17:47:33.312Z,100.00
2023-08-07T17:50:01.905Z,100.00
2023-08-07T17:52:32.795Z,100.00
2023-08-07T17:55:02.229Z,100.00
2023-08-07T17:57:30.783Z,100.00
2023-08-07T18:00:00.544Z,100.00
2023-08-07T18:02:29.018Z,100.00
2023-08-07T18:04:57.552Z,100.00
2023-08-07T18:07:26.062Z,100.00
2023-08-07T18:09:54.436Z,100.00
2023-08-07T18:12:22.878Z,100.00
2023-08-07T18:14:51.151Z,100.00
2023-08-07T18:17:21.018Z,100.00
2023-08-07T18:19:49.408Z,100.00
2023-08-07T18:22:17.725Z,100.00
2023-08-07T18:24:46.107Z,100.00
2023-08-07T18:27:14.797Z,100.00
2023-08-07T18:29:43.677Z,100.00
2023-08-07T18:32:11.964Z,100.00
2023-08-07T18:34:41.720Z,100.00
2023-08-07T18:37:10.012Z,100.00
2023-08-07T18:39:38.693Z,100.00
2023-08-07T18:42:09.752Z,100.00
2023-08-07T18:44:38.056Z,100.00
2023-08-07T18:47:07.045Z,100.00
2023-08-07T18:49:35.552Z,100.00
2023-08-07T18:52:06.153Z,100.00
2023-08-07T18:54:34.449Z,100.00
2023-08-07T18:57:05.806Z,100.00
2023-08-07T18:59:35.600Z,100.00
2023-08-07T19:02:05.345Z,100.00
2023-08-07T19:04:33.896Z,100.00
2023-08-07T19:07:02.469Z,100.00
2023-08-07T19:09:32.249Z,100.00
2023-08-07T19:12:02.614Z,100.00
2023-08-07T19:14:31.312Z,100.00
2023-08-07T19:16:59.899Z,100.00
2023-08-07T19:19:28.548Z,100.00
2023-08-07T19:21:57.046Z,100.00
2023-08-07T19:24:25.434Z,100.00
2023-08-07T19:26:55.258Z,100.00
2023-08-07T19:29:23.577Z,100.00
2023-08-07T19:31:52.039Z,100.00
2023-08-07T19:34:20.687Z,100.00
2023-08-07T19:36:51.550Z,100.00
2023-08-07T19:39:20.527Z,99.93
2023-08-07T19:41:48.918Z,100.00
2023-08-07T19:44:18.615Z,97.65
2023-08-07T19:46:47.294Z,93.76
2023-08-07T19:49:15.552Z,92.18
2023-08-07T19:51:43.868Z,91.41
2023-08-07T19:54:12.376Z,91.69
2023-08-07T19:56:40.648Z,91.46
2023-08-07T19:59:10.795Z,92.36
2023-08-07T20:01:40.692Z,90.74
2023-08-07T20:04:09.100Z,89.90
2023-08-07T20:06:37.792Z,89.80
2023-08-07T20:09:06.960Z,88.74
2023-08-07T20:11:38.934Z,86.77
2023-08-07T20:14:07.282Z,85.53
2023-08-07T20:16:35.771Z,84.84
2023-08-07T20:19:05.765Z,83.96
2023-08-07T20:21:34.469Z,83.28
2023-08-07T20:24:02.787Z,83.11
2023-08-07T20:26:33.793Z,85.69
2023-08-07T20:29:02.459Z,83.69
2023-08-07T20:31:31.000Z,82.61
2023-08-07T20:33:59.879Z,81.10
2023-08-07T20:36:30.435Z,80.44
2023-08-07T20:38:58.939Z,80.10
2023-08-07T20:41:27.898Z,80.25
2023-08-07T20:43:56.314Z,77.50
2023-08-07T20:46:25.435Z,78.59
2023-08-07T20:48:53.796Z,79.65
2023-08-07T20:51:22.273Z,77.77
2023-08-07T20:53:52.743Z,74.59
2023-08-07T20:56:21.383Z,72.63
2023-08-07T20:58:50.150Z,70.75
2023-08-07T21:01:18.535Z,67.77
2023-08-07T21:03:46.821Z,75.50
2023-08-07T21:06:15.117Z,77.19
2023-08-07T21:08:43.488Z,70.38
2023-08-07T21:11:13.329Z,75.27
2023-08-07T21:13:41.846Z,73.87
2023-08-07T21:16:10.154Z,73.56
2023-08-07T21:18:38.503Z,77.01
2023-08-07T21:21:06.756Z,76.66
2023-08-07T21:23:36.096Z,78.39
2023-08-07T21:26:04.559Z,78.92
2023-08-07T21:28:34.722Z,74.68
2023-08-07T21:31:03.978Z,76.94
2023-08-07T21:33:32.411Z,74.55
2023-08-07T21:36:01.094Z,73.36
2023-08-07T21:38:29.397Z,74.33
2023-08-07T21:40:57.692Z,73.95
2023-08-07T21:43:26.637Z,75.04
2023-08-07T21:45:56.460Z,75.79
2023-08-07T21:48:24.747Z,69.97
2023-08-07T21:50:53.240Z,69.29
2023-08-07T21:53:21.763Z,71.86
2023-08-07T21:55:50.176Z,73.12
2023-08-07T21:58:18.565Z,73.55
2023-08-07T22:00:49.430Z,74.29
2023-08-07T22:03:19.313Z,76.39
2023-08-07T22:05:47.895Z,77.87
2023-08-07T22:08:16.289Z,78.00
2023-08-07T22:10:44.636Z,80.00
2023-08-07T22:13:13.189Z,80.86
2023-08-07T22:15:41.632Z,79.99
2023-08-07T22:18:10.151Z,83.54
2023-08-07T22:20:39.914Z,83.59
2023-08-07T22:23:08.226Z,84.29
2023-08-07T22:25:36.983Z,85.87
2023-08-07T22:28:06.622Z,87.35
2023-08-07T22:30:34.916Z,85.43
2023-08-07T22:33:07.480Z,84.37
2023-08-07T22:35:35.844Z,82.96
2023-08-07T22:38:05.849Z,83.78
2023-08-07T22:40:34.204Z,85.24
2023-08-07T22:43:02.497Z,85.69
2023-08-07T22:45:30.881Z,86.27
2023-08-07T22:47:59.265Z,84.13
2023-08-07T22:50:27.650Z,86.60
2023-08-07T22:52:55.990Z,85.90
2023-08-07T22:55:25.778Z,84.21
2023-08-07T22:57:54.112Z,75.63
2023-08-07T23:00:22.436Z,68.99
2023-08-07T23:02:51.117Z,65.99
2023-08-07T23:05:19.643Z,62.92
2023-08-07T23:07:47.955Z,60.76
2023-08-07T23:10:17.110Z,59.83
2023-08-07T23:12:47.340Z,59.19
2023-08-07T23:15:15.795Z,58.57
2023-08-07T23:17:44.241Z,58.39
2023-08-07T23:20:13.674Z,58.21
2023-08-07T23:22:42.189Z,57.92
2023-08-07T23:25:11.122Z,57.41
2023-08-07T23:27:39.358Z,57.76
2023-08-07T23:30:10.152Z,57.90
2023-08-07T23:32:38.686Z,57.54
2023-08-07T23:35:07.348Z,57.74
2023-08-07T23:37:35.643Z,57.25
2023-08-07T23:40:04.444Z,57.45
2023-08-07T23:42:32.722Z,57.68
2023-08-07T23:45:01.053Z,57.70
2023-08-07T23:47:30.980Z,58.21
2023-08-07T23:49:59.254Z,58.38
2023-08-07T23:52:27.638Z,57.92
2023-08-07T23:54:55.915Z,58.42
2023-08-07T23:57:24.243Z,58.08
2023-08-07T23:59:52.584Z,58.11
